sensor_id;sensor_type;location;lat;lon;timestamp;P1;durP1;ratioP1;P2;durP2;ratioP2
11418;SDS011;32800;44.876;13.880;2023-05-10T00:01:07;3.90;;;2.10;;
11418;SDS011;32800;44.876;13.880;2023-05-10T00:03:33;3.23;;;2.00;;
11418;SDS011;32800;44.876;13.880;2023-05-10T00:05:58;2.93;;;2.23;;
11418;SDS011;32800;44.876;13.880;2023-05-10T00:08:24;2.87;;;2.20;;
11418;SDS011;32800;44.876;13.880;2023-05-10T00:10:50;5.90;;;2.30;;
11418;SDS011;32800;44.876;13.880;2023-05-10T00:13:15;2.40;;;1.97;;
11418;SDS011;32800;44.876;13.880;2023-05-10T00:15:41;2.90;;;2.40;;
11418;SDS011;32800;44.876;13.880;2023-05-10T00:18:06;2.53;;;2.27;;
11418;SDS011;32800;44.876;13.880;2023-05-10T00:20:32;4.07;;;2.00;;
11418;SDS011;32800;44.876;13.880;2023-05-10T00:22:57;3.17;;;2.13;;
11418;SDS011;32800;44.876;13.880;2023-05-10T00:25:23;2.53;;;2.00;;
11418;SDS011;32800;44.876;13.880;2023-05-10T00:27:49;2.70;;;1.97;;
11418;SDS011;32800;44.876;13.880;2023-05-10T00:30:14;2.87;;;2.00;;
11418;SDS011;32800;44.876;13.880;2023-05-10T00:32:40;3.63;;;2.10;;
11418;SDS011;32800;44.876;13.880;2023-05-10T00:35:06;2.67;;;2.20;;
11418;SDS011;32800;44.876;13.880;2023-05-10T00:37:31;2.33;;;2.07;;
11418;SDS011;32800;44.876;13.880;2023-05-10T00:39:57;2.23;;;1.80;;
11418;SDS011;32800;44.876;13.880;2023-05-10T00:42:22;3.10;;;2.20;;
11418;SDS011;32800;44.876;13.880;2023-05-10T00:44:48;2.40;;;1.90;;
11418;SDS011;32800;44.876;13.880;2023-05-10T00:47:14;3.47;;;2.20;;
11418;SDS011;32800;44.876;13.880;2023-05-10T00:49:39;2.90;;;2.20;;
11418;SDS011;32800;44.876;13.880;2023-05-10T00:52:05;3.10;;;2.23;;
11418;SDS011;32800;44.876;13.880;2023-05-10T00:54:31;2.10;;;1.90;;
11418;SDS011;32800;44.876;13.880;2023-05-10T00:56:56;4.87;;;2.27;;
11418;SDS011;32800;44.876;13.880;2023-05-10T00:59:22;3.87;;;2.10;;
11418;SDS011;32800;44.876;13.880;2023-05-10T01:01:48;2.07;;;1.80;;
11418;SDS011;32800;44.876;13.880;2023-05-10T01:04:14;3.10;;;2.17;;
11418;SDS011;32800;44.876;13.880;2023-05-10T01:06:43;2.63;;;2.03;;
11418;SDS011;32800;44.876;13.880;2023-05-10T01:09:09;2.80;;;1.90;;
11418;SDS011;32800;44.876;13.880;2023-05-10T01:11:35;2.83;;;2.13;;
11418;SDS011;32800;44.876;13.880;2023-05-10T01:14:02;2.30;;;2.10;;
11418;SDS011;32800;44.876;13.880;2023-05-10T01:16:28;2.23;;;1.97;;
11418;SDS011;32800;44.876;13.880;2023-05-10T01:18:58;2.70;;;2.20;;
11418;SDS011;32800;44.876;13.880;2023-05-10T01:21:33;2.43;;;2.10;;
11418;SDS011;32800;44.876;13.880;2023-05-10T01:24:12;4.73;;;2.40;;
11418;SDS011;32800;44.876;13.880;2023-05-10T01:33:30;2.70;;;2.17;;
11418;SDS011;32800;44.876;13.880;2023-05-10T01:47:31;2.10;;;1.90;;
11418;SDS011;32800;44.876;13.880;2023-05-10T01:50:04;3.07;;;2.20;;
11418;SDS011;32800;44.876;13.880;2023-05-10T01:52:36;2.23;;;1.90;;
11418;SDS011;32800;44.876;13.880;2023-05-10T01:55:06;2.20;;;1.80;;
11418;SDS011;32800;44.876;13.880;2023-05-10T01:57:35;2.40;;;2.10;;
11418;SDS011;32800;44.876;13.880;2023-05-10T02:00:02;5.10;;;2.00;;
11418;SDS011;32800;44.876;13.880;2023-05-10T02:02:30;2.10;;;1.83;;
11418;SDS011;32800;44.876;13.880;2023-05-10T02:04:58;2.40;;;1.70;;
11418;SDS011;32800;44.876;13.880;2023-05-10T02:07:24;2.47;;;1.97;;
11418;SDS011;32800;44.876;13.880;2023-05-10T02:09:52;2.20;;;1.80;;
11418;SDS011;32800;44.876;13.880;2023-05-10T02:12:17;2.10;;;1.90;;
11418;SDS011;32800;44.876;13.880;2023-05-10T02:14:44;2.13;;;1.93;;
11418;SDS011;32800;44.876;13.880;2023-05-10T02:17:10;2.20;;;2.00;;
11418;SDS011;32800;44.876;13.880;2023-05-10T02:19:38;2.83;;;2.03;;
11418;SDS011;32800;44.876;13.880;2023-05-10T02:22:04;2.10;;;1.90;;
11418;SDS011;32800;44.876;13.880;2023-05-10T02:24:30;2.00;;;1.80;;
11418;SDS011;32800;44.876;13.880;2023-05-10T02:26:57;2.30;;;2.10;;
11418;SDS011;32800;44.876;13.880;2023-05-10T02:29:23;2.67;;;1.87;;
11418;SDS011;32800;44.876;13.880;2023-05-10T02:31:54;2.50;;;1.77;;
11418;SDS011;32800;44.876;13.880;2023-05-10T02:34:21;2.00;;;1.80;;
11418;SDS011;32800;44.876;13.880;2023-05-10T02:36:47;2.40;;;1.50;;
11418;SDS011;32800;44.876;13.880;2023-05-10T02:39:13;2.13;;;1.80;;
11418;SDS011;32800;44.876;13.880;2023-05-10T02:41:40;1.50;;;1.40;;
11418;SDS011;32800;44.876;13.880;2023-05-10T02:44:06;1.90;;;1.77;;
11418;SDS011;32800;44.876;13.880;2023-05-10T02:46:33;2.67;;;1.90;;
11418;SDS011;32800;44.876;13.880;2023-05-10T02:48:59;1.70;;;1.60;;
11418;SDS011;32800;44.876;13.880;2023-05-10T02:51:25;2.10;;;1.90;;
11418;SDS011;32800;44.876;13.880;2023-05-10T02:53:53;2.90;;;2.07;;
11418;SDS011;32800;44.876;13.880;2023-05-10T02:56:23;2.70;;;1.80;;
11418;SDS011;32800;44.876;13.880;2023-05-10T02:58:50;1.60;;;1.50;;
11418;SDS011;32800;44.876;13.880;2023-05-10T03:01:16;2.00;;;1.70;;
11418;SDS011;32800;44.876;13.880;2023-05-10T03:03:42;2.43;;;1.57;;
11418;SDS011;32800;44.876;13.880;2023-05-10T03:06:08;1.80;;;1.70;;
11418;SDS011;32800;44.876;13.880;2023-05-10T03:08:34;1.90;;;1.67;;
11418;SDS011;32800;44.876;13.880;2023-05-10T03:13:49;1.87;;;1.60;;
11418;SDS011;32800;44.876;13.880;2023-05-10T03:16:22;2.93;;;1.77;;
11418;SDS011;32800;44.876;13.880;2023-05-10T03:19:00;1.93;;;1.60;;
11418;SDS011;32800;44.876;13.880;2023-05-10T03:21:29;1.80;;;1.57;;
11418;SDS011;32800;44.876;13.880;2023-05-10T03:26:33;1.73;;;1.60;;
11418;SDS011;32800;44.876;13.880;2023-05-10T03:28:59;2.00;;;1.60;;
11418;SDS011;32800;44.876;13.880;2023-05-10T03:31:25;2.27;;;1.87;;
11418;SDS011;32800;44.876;13.880;2023-05-10T03:33:51;4.13;;;1.73;;
11418;SDS011;32800;44.876;13.880;2023-05-10T03:36:17;1.70;;;1.60;;
11418;SDS011;32800;44.876;13.880;2023-05-10T03:38:44;1.70;;;1.60;;
11418;SDS011;32800;44.876;13.880;2023-05-10T03:41:09;1.90;;;1.70;;
11418;SDS011;32800;44.876;13.880;2023-05-10T03:43:35;2.70;;;1.83;;
11418;SDS011;32800;44.876;13.880;2023-05-10T03:46:04;1.80;;;1.70;;
11418;SDS011;32800;44.876;13.880;2023-05-10T03:48:31;2.40;;;1.70;;
11418;SDS011;32800;44.876;13.880;2023-05-10T03:50:57;1.50;;;1.40;;
11418;SDS011;32800;44.876;13.880;2023-05-10T03:53:22;2.10;;;1.77;;
11418;SDS011;32800;44.876;13.880;2023-05-10T03:55:48;4.30;;;1.93;;
11418;SDS011;32800;44.876;13.880;2023-05-10T03:58:14;2.10;;;1.60;;
11418;SDS011;32800;44.876;13.880;2023-05-10T04:00:40;1.70;;;1.60;;
11418;SDS011;32800;44.876;13.880;2023-05-10T04:03:09;2.30;;;1.77;;
11418;SDS011;32800;44.876;13.880;2023-05-10T04:05:35;2.13;;;1.60;;
11418;SDS011;32800;44.876;13.880;2023-05-10T04:08:01;2.13;;;1.60;;
11418;SDS011;32800;44.876;13.880;2023-05-10T04:10:27;2.47;;;1.67;;
11418;SDS011;32800;44.876;13.880;2023-05-10T04:12:52;1.70;;;1.40;;
11418;SDS011;32800;44.876;13.880;2023-05-10T04:15:18;2.90;;;1.57;;
11418;SDS011;32800;44.876;13.880;2023-05-10T04:17:44;2.03;;;1.60;;
11418;SDS011;32800;44.876;13.880;2023-05-10T04:20:09;1.93;;;1.63;;
11418;SDS011;32800;44.876;13.880;2023-05-10T04:22:35;1.70;;;1.60;;
11418;SDS011;32800;44.876;13.880;2023-05-10T04:25:01;2.33;;;1.93;;
11418;SDS011;32800;44.876;13.880;2023-05-10T04:27:27;2.47;;;1.60;;
11418;SDS011;32800;44.876;13.880;2023-05-10T04:29:52;2.70;;;1.67;;
11418;SDS011;32800;44.876;13.880;2023-05-10T04:32:18;2.63;;;1.60;;
11418;SDS011;32800;44.876;13.880;2023-05-10T04:34:44;2.03;;;1.30;;
11418;SDS011;32800;44.876;13.880;2023-05-10T04:37:09;2.03;;;1.60;;
11418;SDS011;32800;44.876;13.880;2023-05-10T04:39:35;1.57;;;1.43;;
11418;SDS011;32800;44.876;13.880;2023-05-10T04:42:01;2.40;;;1.80;;
11418;SDS011;32800;44.876;13.880;2023-05-10T04:44:28;1.67;;;1.50;;
11418;SDS011;32800;44.876;13.880;2023-05-10T04:46:54;1.70;;;1.40;;
11418;SDS011;32800;44.876;13.880;2023-05-10T04:49:19;1.93;;;1.70;;
11418;SDS011;32800;44.876;13.880;2023-05-10T04:51:45;2.63;;;1.73;;
11418;SDS011;32800;44.876;13.880;2023-05-10T04:54:11;2.27;;;2.00;;
11418;SDS011;32800;44.876;13.880;2023-05-10T04:56:37;1.60;;;1.50;;
11418;SDS011;32800;44.876;13.880;2023-05-10T04:59:02;1.70;;;1.60;;
11418;SDS011;32800;44.876;13.880;2023-05-10T05:01:28;1.67;;;1.50;;
11418;SDS011;32800;44.876;13.880;2023-05-10T05:03:53;4.37;;;1.57;;
11418;SDS011;32800;44.876;13.880;2023-05-10T05:06:19;2.13;;;1.67;;
11418;SDS011;32800;44.876;13.880;2023-05-10T05:08:46;1.93;;;1.50;;
11418;SDS011;32800;44.876;13.880;2023-05-10T05:11:11;2.87;;;1.43;;
11418;SDS011;32800;44.876;13.880;2023-05-10T05:13:37;2.43;;;1.63;;
11418;SDS011;32800;44.876;13.880;2023-05-10T05:16:03;8.53;;;1.70;;
11418;SDS011;32800;44.876;13.880;2023-05-10T05:18:30;6.43;;;1.70;;
11418;SDS011;32800;44.876;13.880;2023-05-10T05:20:55;1.47;;;1.33;;
11418;SDS011;32800;44.876;13.880;2023-05-10T05:23:21;3.03;;;1.70;;
11418;SDS011;32800;44.876;13.880;2023-05-10T05:25:50;2.03;;;1.53;;
11418;SDS011;32800;44.876;13.880;2023-05-10T05:28:17;1.63;;;1.53;;
11418;SDS011;32800;44.876;13.880;2023-05-10T05:30:42;6.77;;;1.73;;
11418;SDS011;32800;44.876;13.880;2023-05-10T05:33:08;2.27;;;1.50;;
11418;SDS011;32800;44.876;13.880;2023-05-10T05:35:33;4.90;;;1.60;;
11418;SDS011;32800;44.876;13.880;2023-05-10T05:37:59;3.40;;;1.77;;
11418;SDS011;32800;44.876;13.880;2023-05-10T05:40:25;2.20;;;1.60;;
11418;SDS011;32800;44.876;13.880;2023-05-10T05:42:50;4.00;;;1.57;;
11418;SDS011;32800;44.876;13.880;2023-05-10T05:45:16;2.07;;;1.70;;
11418;SDS011;32800;44.876;13.880;2023-05-10T05:47:41;1.97;;;1.77;;
11418;SDS011;32800;44.876;13.880;2023-05-10T05:50:07;1.73;;;1.53;;
11418;SDS011;32800;44.876;13.880;2023-05-10T05:52:33;3.17;;;1.70;;
11418;SDS011;32800;44.876;13.880;2023-05-10T05:54:58;2.93;;;1.63;;
11418;SDS011;32800;44.876;13.880;2023-05-10T05:57:24;2.10;;;1.70;;
11418;SDS011;32800;44.876;13.880;2023-05-10T05:59:51;2.03;;;1.60;;
11418;SDS011;32800;44.876;13.880;2023-05-10T06:02:17;1.87;;;1.60;;
11418;SDS011;32800;44.876;13.880;2023-05-10T06:04:42;2.70;;;1.70;;
11418;SDS011;32800;44.876;13.880;2023-05-10T06:07:08;2.43;;;1.63;;
11418;SDS011;32800;44.876;13.880;2023-05-10T06:09:33;1.87;;;1.77;;
11418;SDS011;32800;44.876;13.880;2023-05-10T06:11:59;1.77;;;1.67;;
11418;SDS011;32800;44.876;13.880;2023-05-10T06:14:25;2.33;;;1.60;;
11418;SDS011;32800;44.876;13.880;2023-05-10T06:16:50;3.10;;;1.50;;
11418;SDS011;32800;44.876;13.880;2023-05-10T06:19:16;3.83;;;1.80;;
11418;SDS011;32800;44.876;13.880;2023-05-10T06:21:41;1.87;;;1.40;;
11418;SDS011;32800;44.876;13.880;2023-05-10T06:24:07;3.87;;;1.53;;
11418;SDS011;32800;44.876;13.880;2023-05-10T06:26:33;1.90;;;1.70;;
11418;SDS011;32800;44.876;13.880;2023-05-10T06:28:58;2.70;;;2.00;;
11418;SDS011;32800;44.876;13.880;2023-05-10T06:31:24;1.83;;;1.70;;
11418;SDS011;32800;44.876;13.880;2023-05-10T06:33:49;1.90;;;1.70;;
11418;SDS011;32800;44.876;13.880;2023-05-10T06:36:15;1.87;;;1.40;;
11418;SDS011;32800;44.876;13.880;2023-05-10T06:38:41;4.00;;;1.70;;
11418;SDS011;32800;44.876;13.880;2023-05-10T06:41:06;2.63;;;2.00;;
11418;SDS011;32800;44.876;13.880;2023-05-10T06:43:32;2.63;;;1.60;;
11418;SDS011;32800;44.876;13.880;2023-05-10T06:45:57;1.63;;;1.43;;
11418;SDS011;32800;44.876;13.880;2023-05-10T06:48:23;2.70;;;1.70;;
11418;SDS011;32800;44.876;13.880;2023-05-10T06:50:49;2.60;;;1.53;;
11418;SDS011;32800;44.876;13.880;2023-05-10T06:53:14;3.80;;;1.77;;
11418;SDS011;32800;44.876;13.880;2023-05-10T06:55:40;2.03;;;1.50;;
11418;SDS011;32800;44.876;13.880;2023-05-10T06:58:06;2.60;;;1.83;;
11418;SDS011;32800;44.876;13.880;2023-05-10T07:00:31;3.33;;;1.70;;
11418;SDS011;32800;44.876;13.880;2023-05-10T07:02:57;2.10;;;1.80;;
11418;SDS011;32800;44.876;13.880;2023-05-10T07:05:23;2.30;;;2.00;;
11418;SDS011;32800;44.876;13.880;2023-05-10T07:07:48;2.13;;;1.67;;
11418;SDS011;32800;44.876;13.880;2023-05-10T07:10:14;2.03;;;1.50;;
11418;SDS011;32800;44.876;13.880;2023-05-10T07:12:39;3.73;;;1.73;;
11418;SDS011;32800;44.876;13.880;2023-05-10T07:15:05;2.00;;;1.60;;
11418;SDS011;32800;44.876;13.880;2023-05-10T07:17:31;4.90;;;2.10;;
11418;SDS011;32800;44.876;13.880;2023-05-10T07:20:01;2.57;;;1.93;;
11418;SDS011;32800;44.876;13.880;2023-05-10T07:22:26;2.87;;;1.97;;
11418;SDS011;32800;44.876;13.880;2023-05-10T07:24:52;2.00;;;1.70;;
11418;SDS011;32800;44.876;13.880;2023-05-10T07:27:18;3.27;;;1.80;;
11418;SDS011;32800;44.876;13.880;2023-05-10T07:29:44;2.10;;;1.70;;
11418;SDS011;32800;44.876;13.880;2023-05-10T07:32:09;3.83;;;1.90;;
11418;SDS011;32800;44.876;13.880;2023-05-10T07:34:35;2.57;;;1.90;;
11418;SDS011;32800;44.876;13.880;2023-05-10T07:37:04;2.50;;;1.53;;
11418;SDS011;32800;44.876;13.880;2023-05-10T07:39:31;2.40;;;2.00;;
11418;SDS011;32800;44.876;13.880;2023-05-10T07:41:57;2.33;;;1.87;;
11418;SDS011;32800;44.876;13.880;2023-05-10T07:44:22;1.87;;;1.60;;
11418;SDS011;32800;44.876;13.880;2023-05-10T07:46:48;3.00;;;2.00;;
11418;SDS011;32800;44.876;13.880;2023-05-10T07:49:13;2.07;;;1.83;;
11418;SDS011;32800;44.876;13.880;2023-05-10T07:51:39;2.97;;;1.80;;
11418;SDS011;32800;44.876;13.880;2023-05-10T07:54:05;2.00;;;1.70;;
11418;SDS011;32800;44.876;13.880;2023-05-10T07:56:31;2.37;;;1.57;;
11418;SDS011;32800;44.876;13.880;2023-05-10T07:58:58;3.10;;;1.80;;
11418;SDS011;32800;44.876;13.880;2023-05-10T08:01:24;3.67;;;1.87;;
11418;SDS011;32800;44.876;13.880;2023-05-10T08:03:50;2.23;;;1.57;;
11418;SDS011;32800;44.876;13.880;2023-05-10T08:06:17;4.17;;;1.90;;
11418;SDS011;32800;44.876;13.880;2023-05-10T08:08:43;2.37;;;1.93;;
11418;SDS011;32800;44.876;13.880;2023-05-10T08:11:10;3.40;;;1.83;;
11418;SDS011;32800;44.876;13.880;2023-05-10T08:13:36;4.77;;;1.90;;
11418;SDS011;32800;44.876;13.880;2023-05-10T08:16:01;2.70;;;1.93;;
11418;SDS011;32800;44.876;13.880;2023-05-10T08:18:27;2.97;;;2.00;;
11418;SDS011;32800;44.876;13.880;2023-05-10T08:20:53;2.20;;;1.90;;
11418;SDS011;32800;44.876;13.880;2023-05-10T08:23:19;3.30;;;1.73;;
11418;SDS011;32800;44.876;13.880;2023-05-10T08:25:44;2.60;;;2.00;;
11418;SDS011;32800;44.876;13.880;2023-05-10T08:28:10;2.10;;;1.60;;
11418;SDS011;32800;44.876;13.880;2023-05-10T08:30:35;2.40;;;1.83;;
11418;SDS011;32800;44.876;13.880;2023-05-10T08:33:01;2.37;;;2.00;;
11418;SDS011;32800;44.876;13.880;2023-05-10T08:35:26;2.13;;;1.60;;
11418;SDS011;32800;44.876;13.880;2023-05-10T08:37:52;5.30;;;2.40;;
11418;SDS011;32800;44.876;13.880;2023-05-10T08:40:18;4.17;;;2.00;;
11418;SDS011;32800;44.876;13.880;2023-05-10T08:42:48;2.03;;;1.83;;
11418;SDS011;32800;44.876;13.880;2023-05-10T08:45:18;2.23;;;2.03;;
11418;SDS011;32800;44.876;13.880;2023-05-10T08:47:44;2.53;;;2.03;;
11418;SDS011;32800;44.876;13.880;2023-05-10T08:50:10;3.50;;;2.30;;
11418;SDS011;32800;44.876;13.880;2023-05-10T08:52:37;5.37;;;2.60;;
11418;SDS011;32800;44.876;13.880;2023-05-10T08:55:05;3.23;;;2.23;;
11418;SDS011;32800;44.876;13.880;2023-05-10T08:57:31;3.60;;;2.93;;
11418;SDS011;32800;44.876;13.880;2023-05-10T08:59:56;5.13;;;2.50;;
11418;SDS011;32800;44.876;13.880;2023-05-10T09:02:23;5.47;;;2.77;;
11418;SDS011;32800;44.876;13.880;2023-05-10T09:04:48;4.97;;;2.87;;
11418;SDS011;32800;44.876;13.880;2023-05-10T09:07:14;3.13;;;2.63;;
11418;SDS011;32800;44.876;13.880;2023-05-10T09:09:40;3.73;;;2.40;;
11418;SDS011;32800;44.876;13.880;2023-05-10T09:12:06;3.07;;;2.67;;
11418;SDS011;32800;44.876;13.880;2023-05-10T09:14:35;3.73;;;2.67;;
11418;SDS011;32800;44.876;13.880;2023-05-10T09:17:01;4.20;;;3.03;;
11418;SDS011;32800;44.876;13.880;2023-05-10T09:19:27;2.93;;;2.40;;
11418;SDS011;32800;44.876;13.880;2023-05-10T09:21:53;3.60;;;2.70;;
11418;SDS011;32800;44.876;13.880;2023-05-10T09:24:18;3.83;;;2.80;;
11418;SDS011;32800;44.876;13.880;2023-05-10T09:26:47;4.53;;;2.90;;
11418;SDS011;32800;44.876;13.880;2023-05-10T09:29:13;3.93;;;2.77;;
11418;SDS011;32800;44.876;13.880;2023-05-10T09:31:43;3.87;;;2.73;;
11418;SDS011;32800;44.876;13.880;2023-05-10T09:34:11;3.50;;;3.00;;
11418;SDS011;32800;44.876;13.880;2023-05-10T09:36:49;3.00;;;2.70;;
11418;SDS011;32800;44.876;13.880;2023-05-10T09:39:19;5.90;;;2.50;;
11418;SDS011;32800;44.876;13.880;2023-05-10T09:41:45;3.73;;;2.90;;
11418;SDS011;32800;44.876;13.880;2023-05-10T09:44:10;3.40;;;2.50;;
11418;SDS011;32800;44.876;13.880;2023-05-10T09:46:36;3.43;;;2.97;;
11418;SDS011;32800;44.876;13.880;2023-05-10T09:49:02;3.90;;;3.00;;
11418;SDS011;32800;44.876;13.880;2023-05-10T09:51:27;3.40;;;2.90;;
11418;SDS011;32800;44.876;13.880;2023-05-10T09:54:14;6.17;;;3.13;;
11418;SDS011;32800;44.876;13.880;2023-05-10T09:56:39;3.00;;;2.70;;
11418;SDS011;32800;44.876;13.880;2023-05-10T09:59:06;3.40;;;3.10;;
11418;SDS011;32800;44.876;13.880;2023-05-10T10:01:33;3.00;;;2.50;;
11418;SDS011;32800;44.876;13.880;2023-05-10T10:04:02;2.97;;;2.70;;
11418;SDS011;32800;44.876;13.880;2023-05-10T10:06:29;4.90;;;3.20;;
11418;SDS011;32800;44.876;13.880;2023-05-10T10:08:54;2.70;;;2.40;;
11418;SDS011;32800;44.876;13.880;2023-05-10T10:11:21;3.23;;;2.90;;
11418;SDS011;32800;44.876;13.880;2023-05-10T10:13:47;3.00;;;2.70;;
11418;SDS011;32800;44.876;13.880;2023-05-10T10:16:12;2.87;;;2.57;;
11418;SDS011;32800;44.876;13.880;2023-05-10T10:18:38;4.07;;;2.93;;
11418;SDS011;32800;44.876;13.880;2023-05-10T10:21:07;4.70;;;2.77;;
11418;SDS011;32800;44.876;13.880;2023-05-10T10:23:36;3.00;;;2.70;;
11418;SDS011;32800;44.876;13.880;2023-05-10T10:26:04;5.10;;;3.20;;
11418;SDS011;32800;44.876;13.880;2023-05-10T10:31:13;2.90;;;2.70;;
11418;SDS011;32800;44.876;13.880;2023-05-10T10:33:51;3.47;;;2.73;;
11418;SDS011;32800;44.876;13.880;2023-05-10T10:36:47;3.60;;;2.67;;
11418;SDS011;32800;44.876;13.880;2023-05-10T10:39:14;2.80;;;2.60;;
11418;SDS011;32800;44.876;13.880;2023-05-10T10:41:54;3.37;;;2.80;;
11418;SDS011;32800;44.876;13.880;2023-05-10T10:47:05;3.50;;;2.50;;
11418;SDS011;32800;44.876;13.880;2023-05-10T10:49:42;3.37;;;2.80;;
11418;SDS011;32800;44.876;13.880;2023-05-10T10:54:59;4.20;;;3.20;;
11418;SDS011;32800;44.876;13.880;2023-05-10T10:57:26;3.03;;;2.80;;
11418;SDS011;32800;44.876;13.880;2023-05-10T11:02:56;2.97;;;2.67;;
11418;SDS011;32800;44.876;13.880;2023-05-10T11:07:58;2.93;;;2.70;;
11418;SDS011;32800;44.876;13.880;2023-05-10T11:10:25;3.67;;;2.87;;
11418;SDS011;32800;44.876;13.880;2023-05-10T11:15:37;3.33;;;2.80;;
11418;SDS011;32800;44.876;13.880;2023-05-10T11:20:50;3.00;;;2.70;;
11418;SDS011;32800;44.876;13.880;2023-05-10T11:23:16;3.43;;;2.97;;
11418;SDS011;32800;44.876;13.880;2023-05-10T11:25:43;4.03;;;2.80;;
11418;SDS011;32800;44.876;13.880;2023-05-10T11:28:09;3.23;;;2.43;;
11418;SDS011;32800;44.876;13.880;2023-05-10T11:30:38;2.87;;;2.67;;
11418;SDS011;32800;44.876;13.880;2023-05-10T11:33:06;4.97;;;3.20;;
11418;SDS011;32800;44.876;13.880;2023-05-10T11:35:41;3.17;;;2.70;;
11418;SDS011;32800;44.876;13.880;2023-05-10T11:38:07;4.57;;;2.73;;
11418;SDS011;32800;44.876;13.880;2023-05-10T11:40:34;3.70;;;2.80;;
11418;SDS011;32800;44.876;13.880;2023-05-10T11:42:59;3.53;;;2.80;;
11418;SDS011;32800;44.876;13.880;2023-05-10T11:45:25;4.40;;;2.90;;
11418;SDS011;32800;44.876;13.880;2023-05-10T11:47:51;2.73;;;2.30;;
11418;SDS011;32800;44.876;13.880;2023-05-10T11:50:17;4.53;;;2.77;;
11418;SDS011;32800;44.876;13.880;2023-05-10T11:52:42;3.27;;;2.77;;
11418;SDS011;32800;44.876;13.880;2023-05-10T11:55:08;4.47;;;2.77;;
11418;SDS011;32800;44.876;13.880;2023-05-10T11:57:34;2.77;;;2.30;;
11418;SDS011;32800;44.876;13.880;2023-05-10T12:00:03;2.80;;;2.50;;
11418;SDS011;32800;44.876;13.880;2023-05-10T12:02:29;2.77;;;2.40;;
11418;SDS011;32800;44.876;13.880;2023-05-10T12:04:55;3.60;;;2.50;;
11418;SDS011;32800;44.876;13.880;2023-05-10T12:07:21;3.93;;;2.90;;
11418;SDS011;32800;44.876;13.880;2023-05-10T12:12:44;2.80;;;2.43;;
11418;SDS011;32800;44.876;13.880;2023-05-10T12:15:19;4.57;;;3.10;;
11418;SDS011;32800;44.876;13.880;2023-05-10T12:17:46;5.53;;;3.10;;
11418;SDS011;32800;44.876;13.880;2023-05-10T12:20:15;4.47;;;3.23;;
11418;SDS011;32800;44.876;13.880;2023-05-10T12:22:46;6.87;;;3.43;;
11418;SDS011;32800;44.876;13.880;2023-05-10T12:25:15;4.70;;;3.43;;
11418;SDS011;32800;44.876;13.880;2023-05-10T12:27:47;13.57;;;3.40;;
11418;SDS011;32800;44.876;13.880;2023-05-10T12:30:18;4.60;;;3.27;;
11418;SDS011;32800;44.876;13.880;2023-05-10T12:32:45;4.97;;;3.33;;
11418;SDS011;32800;44.876;13.880;2023-05-10T12:35:10;7.03;;;3.87;;
11418;SDS011;32800;44.876;13.880;2023-05-10T12:37:36;10.03;;;4.47;;
11418;SDS011;32800;44.876;13.880;2023-05-10T12:40:08;8.60;;;4.80;;
11418;SDS011;32800;44.876;13.880;2023-05-10T12:42:38;8.87;;;5.33;;
11418;SDS011;32800;44.876;13.880;2023-05-10T12:45:05;11.80;;;4.90;;
11418;SDS011;32800;44.876;13.880;2023-05-10T12:47:31;11.70;;;5.07;;
11418;SDS011;32800;44.876;13.880;2023-05-10T12:50:00;13.83;;;5.50;;
11418;SDS011;32800;44.876;13.880;2023-05-10T12:52:26;9.57;;;5.40;;
11418;SDS011;32800;44.876;13.880;2023-05-10T12:54:53;11.40;;;5.67;;
11418;SDS011;32800;44.876;13.880;2023-05-10T12:57:19;11.87;;;4.97;;
11418;SDS011;32800;44.876;13.880;2023-05-10T12:59:46;10.57;;;5.13;;
11418;SDS011;32800;44.876;13.880;2023-05-10T13:02:11;10.20;;;5.00;;
11418;SDS011;32800;44.876;13.880;2023-05-10T13:04:37;11.13;;;5.13;;
11418;SDS011;32800;44.876;13.880;2023-05-10T13:07:07;10.93;;;5.50;;
11418;SDS011;32800;44.876;13.880;2023-05-10T13:09:33;9.00;;;5.23;;
11418;SDS011;32800;44.876;13.880;2023-05-10T13:11:59;8.67;;;4.80;;
11418;SDS011;32800;44.876;13.880;2023-05-10T13:14:24;8.13;;;5.03;;
11418;SDS011;32800;44.876;13.880;2023-05-10T13:16:50;6.90;;;4.73;;
11418;SDS011;32800;44.876;13.880;2023-05-10T13:19:16;11.33;;;4.80;;
11418;SDS011;32800;44.876;13.880;2023-05-10T13:21:42;11.47;;;5.77;;
11418;SDS011;32800;44.876;13.880;2023-05-10T13:24:07;8.77;;;4.70;;
11418;SDS011;32800;44.876;13.880;2023-05-10T13:26:33;11.67;;;5.17;;
11418;SDS011;32800;44.876;13.880;2023-05-10T13:28:59;8.73;;;4.53;;
11418;SDS011;32800;44.876;13.880;2023-05-10T13:31:24;7.23;;;4.43;;
11418;SDS011;32800;44.876;13.880;2023-05-10T13:33:50;7.83;;;4.63;;
11418;SDS011;32800;44.876;13.880;2023-05-10T13:36:15;9.93;;;4.60;;
11418;SDS011;32800;44.876;13.880;2023-05-10T13:38:41;7.93;;;4.40;;
11418;SDS011;32800;44.876;13.880;2023-05-10T13:41:06;6.87;;;4.20;;
11418;SDS011;32800;44.876;13.880;2023-05-10T13:43:32;6.30;;;4.30;;
11418;SDS011;32800;44.876;13.880;2023-05-10T13:45:57;8.37;;;4.03;;
11418;SDS011;32800;44.876;13.880;2023-05-10T13:48:23;7.63;;;3.53;;
11418;SDS011;32800;44.876;13.880;2023-05-10T13:50:49;6.43;;;3.50;;
11418;SDS011;32800;44.876;13.880;2023-05-10T13:53:14;6.10;;;3.80;;
11418;SDS011;32800;44.876;13.880;2023-05-10T13:55:40;5.83;;;3.17;;
11418;SDS011;32800;44.876;13.880;2023-05-10T13:58:06;5.50;;;3.43;;
11418;SDS011;32800;44.876;13.880;2023-05-10T14:00:34;5.43;;;3.60;;
11418;SDS011;32800;44.876;13.880;2023-05-10T14:02:59;4.67;;;3.17;;
11418;SDS011;32800;44.876;13.880;2023-05-10T14:05:25;4.17;;;3.17;;
11418;SDS011;32800;44.876;13.880;2023-05-10T14:07:51;5.30;;;3.23;;
11418;SDS011;32800;44.876;13.880;2023-05-10T14:10:16;3.73;;;2.90;;
11418;SDS011;32800;44.876;13.880;2023-05-10T14:12:42;5.13;;;2.80;;
11418;SDS011;32800;44.876;13.880;2023-05-10T14:15:08;3.40;;;2.40;;
11418;SDS011;32800;44.876;13.880;2023-05-10T14:17:35;4.17;;;2.70;;
11418;SDS011;32800;44.876;13.880;2023-05-10T14:20:01;3.00;;;2.70;;
11418;SDS011;32800;44.876;13.880;2023-05-10T14:22:27;2.90;;;2.60;;
11418;SDS011;32800;44.876;13.880;2023-05-10T14:24:52;4.27;;;3.03;;
11418;SDS011;32800;44.876;13.880;2023-05-10T14:27:18;3.60;;;2.60;;
11418;SDS011;32800;44.876;13.880;2023-05-10T14:29:43;3.03;;;2.70;;
11418;SDS011;32800;44.876;13.880;2023-05-10T14:32:09;3.17;;;2.37;;
11418;SDS011;32800;44.876;13.880;2023-05-10T14:34:34;3.50;;;2.73;;
11418;SDS011;32800;44.876;13.880;2023-05-10T14:37:00;3.17;;;2.87;;
11418;SDS011;32800;44.876;13.880;2023-05-10T14:39:26;3.80;;;2.70;;
11418;SDS011;32800;44.876;13.880;2023-05-10T14:41:54;3.20;;;2.83;;
11418;SDS011;32800;44.876;13.880;2023-05-10T14:44:20;4.43;;;2.67;;
11418;SDS011;32800;44.876;13.880;2023-05-10T14:46:45;4.07;;;2.83;;
11418;SDS011;32800;44.876;13.880;2023-05-10T14:49:12;2.90;;;2.57;;
11418;SDS011;32800;44.876;13.880;2023-05-10T14:51:37;3.10;;;2.30;;
11418;SDS011;32800;44.876;13.880;2023-05-10T14:54:03;2.53;;;2.33;;
11418;SDS011;32800;44.876;13.880;2023-05-10T14:56:28;3.10;;;2.63;;
11418;SDS011;32800;44.876;13.880;2023-05-10T14:58:54;3.13;;;2.50;;
11418;SDS011;32800;44.876;13.880;2023-05-10T15:01:20;2.93;;;2.50;;
11418;SDS011;32800;44.876;13.880;2023-05-10T15:03:46;3.33;;;2.80;;
11418;SDS011;32800;44.876;13.880;2023-05-10T15:06:13;3.37;;;2.60;;
11418;SDS011;32800;44.876;13.880;2023-05-10T15:08:39;4.43;;;2.60;;
11418;SDS011;32800;44.876;13.880;2023-05-10T15:11:06;2.93;;;2.70;;
11418;SDS011;32800;44.876;13.880;2023-05-10T15:13:35;3.67;;;2.60;;
11418;SDS011;32800;44.876;13.880;2023-05-10T15:16:00;2.80;;;2.60;;